Time,TemperatureF,DewpointF,PressureIn,WindDirection,WindDirectionDegrees,WindSpeedMPH,WindSpeedGustMPH,Humidity,HourlyPrecipIn,Conditions,Clouds,dailyrainin,SoftwareType,DateUTC
2013-12-08 00:00:00,31.6,27.6,30.09,SSE,148,4.0,7.0,85,0.00,,,0.00,Wunderground v.1.15,2013-12-08 07:00:00,
2013-12-08 00:10:00,32.4,26.0,30.09,South,172,5.0,5.0,77,0.00,,,0.00,Wunderground v.1.15,2013-12-08 07:10:00,
2013-12-08 00:20:00,33.1,23.3,30.08,South,175,5.0,5.0,67,0.00,,,0.00,Wunderground v.1.15,2013-12-08 07:20:00,
2013-12-08 00:30:00,33.7,21.7,30.08,South,173,4.0,6.0,61,0.00,,,0.00,Wunderground v.1.15,2013-12-08 07:30:00,
2013-12-08 00:40:00,33.7,20.9,30.07,South,173,3.0,3.0,59,0.00,,,0.00,Wunderground v.1.15,2013-12-08 07:40:00,
2013-12-08 00:50:00,33.7,20.5,30.06,South,173,2.0,2.0,58,0.00,,,0.00,Wunderground v.1.15,2013-12-08 07:50:00,
2013-12-08 01:00:00,33.6,20.0,30.06,South,173,2.0,3.0,57,0.00,,,0.00,Wunderground v.1.15,2013-12-08 08:00:00,
2013-12-08 01:10:00,33.9,19.4,30.05,SSE,163,3.0,9.0,55,0.00,,,0.00,Wunderground v.1.15,2013-12-08 08:10:00,
2013-12-08 01:20:00,33.6,19.6,30.04,SSE,150,4.0,4.0,56,0.00,,,0.00,Wunderground v.1.15,2013-12-08 08:20:00,
2013-12-08 01:30:00,32.8,21.2,30.04,ESE,114,5.0,9.0,62,0.00,,,0.00,Wunderground v.1.15,2013-12-08 08:30:00,
2013-12-08 01:40:00,32.3,22.2,30.03,ESE,121,7.0,9.0,66,0.00,,,0.00,Wunderground v.1.15,2013-12-08 08:40:00,
2013-12-08 01:50:00,32.3,21.5,30.02,ESE,112,4.0,4.0,64,0.00,,,0.00,Wunderground v.1.15,2013-12-08 08:50:00,
2013-12-08 02:00:00,32.4,21.2,30.02,ESE,109,5.0,5.0,63,0.00,,,0.00,Wunderground v.1.15,2013-12-08 09:00:00,
2013-12-08 02:10:00,32.5,20.5,30.02,ESE,107,4.0,9.0,61,0.00,,,0.00,Wunderground v.1.15,2013-12-08 09:10:00,
2013-12-08 02:20:00,32.6,19.8,30.02,ESE,110,4.0,4.0,59,0.00,,,0.00,Wunderground v.1.15,2013-12-08 09:20:00,
2013-12-08 02:30:00,32.4,20.4,30.01,ESE,109,2.0,2.0,61,0.00,,,0.00,Wunderground v.1.15,2013-12-08 09:30:00,
2013-12-08 02:40:00,33.3,18.4,30.02,SSE,157,2.0,9.0,54,0.00,,,0.00,Wunderground v.1.15,2013-12-08 09:40:00,
2013-12-08 02:50:00,33.9,18.1,30.02,SSE,165,4.0,4.0,52,0.00,,,0.00,Wunderground v.1.15,2013-12-08 09:50:00,
2013-12-08 03:00:00,33.3,18.0,30.02,SSE,163,1.0,9.0,53,0.00,,,0.00,Wunderground v.1.15,2013-12-08 10:00:00,
2013-12-08 03:10:00,33.3,18.4,30.03,SSE,155,3.0,3.0,54,0.00,,,0.00,Wunderground v.1.15,2013-12-08 10:10:00,
2013-12-08 03:20:00,32.5,19.7,30.03,SE,137,3.0,9.0,59,0.00,,,0.00,Wunderground v.1.15,2013-12-08 10:20:00,
2013-12-08 03:30:00,31.9,20.0,30.03,SE,134,2.0,2.0,61,0.00,,,0.00,Wunderground v.1.15,2013-12-08 10:30:00,
2013-12-08 03:40:00,31.6,20.4,30.03,SE,132,1.0,1.0,63,0.00,,,0.00,Wunderground v.1.15,2013-12-08 10:40:00,
2013-12-08 03:50:00,31.9,20.7,30.03,SE,128,2.0,2.0,63,0.00,,,0.00,Wunderground v.1.15,2013-12-08 10:50:00,
2013-12-08 04:00:00,32.2,20.6,30.02,SE,125,3.0,9.0,62,0.00,,,0.00,Wunderground v.1.15,2013-12-08 11:00:00,
2013-12-08 04:10:00,32.5,20.5,30.01,ESE,111,6.0,9.0,61,0.00,,,0.00,Wunderground v.1.15,2013-12-08 11:10:00,
2013-12-08 04:20:00,32.5,20.5,30.01,ESE,113,6.0,6.0,61,0.00,,,0.00,Wunderground v.1.15,2013-12-08 11:20:00,
2013-12-08 04:30:00,32.0,20.4,30.00,ESE,111,5.0,5.0,62,0.00,,,0.00,Wunderground v.1.15,2013-12-08 11:30:00,
2013-12-08 04:40:00,31.7,20.5,30.00,ESE,114,3.0,3.0,63,0.00,,,0.00,Wunderground v.1.15,2013-12-08 11:40:00,
2013-12-08 04:50:00,32.2,20.6,30.00,SSE,150,2.0,9.0,62,0.00,,,0.00,Wunderground v.1.15,2013-12-08 11:50:00,
2013-12-08 05:00:00,33.0,20.6,29.99,SSE,161,5.0,5.0,60,0.00,,,0.00,Wunderground v.1.15,2013-12-08 12:00:00,
2013-12-08 05:10:00,32.9,20.9,29.99,South,178,6.0,9.0,61,0.00,,,0.00,Wunderground v.1.15,2013-12-08 12:10:00,
2013-12-08 05:20:00,32.7,21.1,29.99,SSW,194,6.0,6.0,62,0.00,,,0.00,Wunderground v.1.15,2013-12-08 12:20:00,
2013-12-08 05:30:00,32.1,20.9,29.99,South,184,6.0,6.0,63,0.00,,,0.00,Wunderground v.1.15,2013-12-08 12:30:00,
2013-12-08 05:40:00,32.0,20.8,29.98,South,186,6.0,9.0,63,0.00,,,0.00,Wunderground v.1.15,2013-12-08 12:40:00,
2013-12-08 05:50:00,32.4,21.2,29.99,South,173,7.0,9.0,63,0.00,,,0.00,Wunderground v.1.15,2013-12-08 12:50:00,
2013-12-08 06:00:00,32.4,21.2,29.98,South,179,5.0,9.0,63,0.00,,,0.00,Wunderground v.1.15,2013-12-08 13:00:00,
2013-12-08 06:10:00,32.3,21.5,29.99,SSE,163,6.0,6.0,64,0.00,,,0.00,Wunderground v.1.15,2013-12-08 13:10:00,
2013-12-08 06:20:00,31.7,21.3,29.99,South,172,7.0,9.0,65,0.00,,,0.00,Wunderground v.1.15,2013-12-08 13:20:00,
2013-12-08 06:30:00,31.5,21.4,29.99,SSE,155,6.0,6.0,66,0.00,,,0.00,Wunderground v.1.15,2013-12-08 13:30:00,
2013-12-08 06:40:00,31.3,21.6,30.00,SE,145,6.0,6.0,67,0.00,,,0.00,Wunderground v.1.15,2013-12-08 13:40:00,
2013-12-08 06:50:00,31.3,21.6,30.01,SSE,159,4.0,4.0,67,0.00,,,0.00,Wunderground v.1.15,2013-12-08 13:50:00,
2013-12-08 07:00:00,31.3,22.3,30.03,SSE,159,1.0,1.0,69,0.00,,,0.00,Wunderground v.1.15,2013-12-08 14:00:00,
2013-12-08 07:10:00,31.3,22.3,30.05,NW,313,2.0,9.0,69,0.00,,,0.00,Wunderground v.1.15,2013-12-08 14:10:00,
2013-12-08 07:20:00,30.0,21.4,30.06,NW,321,8.0,8.0,70,0.00,,,0.00,Wunderground v.1.15,2013-12-08 14:20:00,
2013-12-08 07:30:00,29.3,21.1,30.07,NNW,330,6.0,6.0,71,0.00,,,0.00,Wunderground v.1.15,2013-12-08 14:30:00,
2013-12-08 07:40:00,28.4,21.2,30.08,NW,309,7.0,11.0,74,0.00,,,0.00,Wunderground v.1.15,2013-12-08 14:40:00,
2013-12-08 07:50:00,27.6,21.3,30.08,NW,321,7.0,9.0,77,0.00,,,0.00,Wunderground v.1.15,2013-12-08 14:50:00,
2013-12-08 08:00:00,26.9,21.8,30.09,NNW,338,8.0,8.0,81,0.00,,,0.00,Wunderground v.1.15,2013-12-08 15:00:00,
2013-12-08 08:10:00,27.4,20.8,30.09,WNW,302,8.0,9.0,76,0.00,,,0.00,Wunderground v.1.15,2013-12-08 15:10:00,
2013-12-08 08:20:00,27.4,20.2,30.09,NW,307,7.0,7.0,74,0.00,,,0.00,Wunderground v.1.15,2013-12-08 15:20:00,
2013-12-08 08:30:00,27.9,20.4,30.10,NW,311,6.0,6.0,73,0.00,,,0.00,Wunderground v.1.15,2013-12-08 15:30:00,
2013-12-08 08:40:00,28.1,19.9,30.11,NW,305,3.0,9.0,71,0.00,,,0.00,Wunderground v.1.15,2013-12-08 15:40:00,
2013-12-08 08:50:00,28.1,19.9,30.10,NW,310,5.0,9.0,71,0.00,,,0.00,Wunderground v.1.15,2013-12-08 15:50:00,
2013-12-08 09:00:00,28.0,19.8,30.10,NW,321,5.0,9.0,71,0.00,,,0.00,Wunderground v.1.15,2013-12-08 16:00:00,
2013-12-08 09:10:00,28.9,20.3,30.10,NW,317,5.0,9.0,70,0.00,,,0.00,Wunderground v.1.15,2013-12-08 16:10:00,
2013-12-08 09:20:00,29.4,20.1,30.11,NNW,340,5.0,5.0,68,0.00,,,0.00,Wunderground v.1.15,2013-12-08 16:20:00,
2013-12-08 09:30:00,30.3,20.3,30.12,NW,316,5.0,5.0,66,0.00,,,0.00,Wunderground v.1.15,2013-12-08 16:30:00,
2013-12-08 09:40:00,31.3,19.8,30.12,NNW,327,5.0,5.0,62,0.00,,,0.00,Wunderground v.1.15,2013-12-08 16:40:00,
2013-12-08 09:50:00,31.6,18.9,30.13,NW,319,7.0,10.0,59,0.00,,,0.00,Wunderground v.1.15,2013-12-08 16:50:00,
2013-12-08 10:00:00,31.7,18.6,30.13,NW,320,8.0,8.0,58,0.00,,,0.00,Wunderground v.1.15,2013-12-08 17:00:00,
2013-12-08 10:10:00,31.3,18.6,30.13,NW,324,6.0,11.0,59,0.00,,,0.00,Wunderground v.1.15,2013-12-08 17:10:00,
2013-12-08 10:20:00,31.7,19.0,30.13,NW,325,8.0,8.0,59,0.00,,,0.00,Wunderground v.1.15,2013-12-08 17:20:00,
2013-12-08 10:30:00,32.7,19.1,30.13,NW,313,8.0,10.0,57,0.00,,,0.00,Wunderground v.1.15,2013-12-08 17:30:00,
2013-12-08 10:40:00,32.8,19.2,30.13,WNW,291,10.0,10.0,57,0.00,,,0.00,Wunderground v.1.15,2013-12-08 17:40:00,
2013-12-08 10:50:00,33.2,19.6,30.13,NW,310,8.0,18.0,57,0.00,,,0.00,Wunderground v.1.15,2013-12-08 17:50:00,
2013-12-08 11:00:00,33.4,19.4,30.12,NW,306,11.0,12.0,56,0.00,,,0.00,Wunderground v.1.15,2013-12-08 18:00:00,
2013-12-08 11:10:00,33.2,18.8,30.13,NW,304,10.0,10.0,55,0.00,,,0.00,Wunderground v.1.15,2013-12-08 18:10:00,
2013-12-08 11:20:00,33.6,19.6,30.13,NW,322,7.0,7.0,56,0.00,,,0.00,Wunderground v.1.15,2013-12-08 18:20:00,
2013-12-08 11:30:00,34.4,19.9,30.13,NNW,338,7.0,9.0,55,0.00,,,0.00,Wunderground v.1.15,2013-12-08 18:30:00,
2013-12-08 11:40:00,34.9,19.5,30.13,NW,325,7.0,9.0,53,0.00,,,0.00,Wunderground v.1.15,2013-12-08 18:40:00,
2013-12-08 11:50:00,34.7,19.3,30.12,NW,319,6.0,6.0,53,0.00,,,0.00,Wunderground v.1.15,2013-12-08 18:50:00,
2013-12-08 12:00:00,35.8,20.3,30.12,WNW,287,4.0,9.0,53,0.00,,,0.00,Wunderground v.1.15,2013-12-08 19:00:00,
2013-12-08 12:10:00,34.6,19.2,30.11,NW,311,8.0,8.0,53,0.00,,,0.00,Wunderground v.1.15,2013-12-08 19:10:00,
2013-12-08 12:20:00,34.8,18.9,30.11,NNW,335,4.0,4.0,52,0.00,,,0.00,Wunderground v.1.15,2013-12-08 19:20:00,
2013-12-08 12:30:00,34.2,18.4,30.11,NNW,338,7.0,7.0,52,0.00,,,0.00,Wunderground v.1.15,2013-12-08 19:30:00,
2013-12-08 12:40:00,34.6,18.8,30.10,NNW,327,5.0,5.0,52,0.00,,,0.00,Wunderground v.1.15,2013-12-08 19:40:00,
2013-12-08 12:50:00,35.0,19.6,30.10,NNW,327,4.0,9.0,53,0.00,,,0.00,Wunderground v.1.15,2013-12-08 19:50:00,
2013-12-08 13:00:00,35.2,18.9,30.10,NNW,338,4.0,4.0,51,0.00,,,0.00,Wunderground v.1.15,2013-12-08 20:00:00,
2013-12-08 13:10:00,35.1,19.2,30.10,NW,322,4.0,4.0,52,0.00,,,0.00,Wunderground v.1.15,2013-12-08 20:10:00,
2013-12-08 13:20:00,35.1,18.3,30.10,NW,325,4.0,4.0,50,0.00,,,0.00,Wunderground v.1.15,2013-12-08 20:20:00,
2013-12-08 13:30:00,35.5,18.7,30.10,NNW,338,3.0,9.0,50,0.00,,,0.00,Wunderground v.1.15,2013-12-08 20:30:00,
2013-12-08 13:40:00,35.5,18.7,30.10,NNW,334,5.0,5.0,50,0.00,,,0.00,Wunderground v.1.15,2013-12-08 20:40:00,
2013-12-08 13:50:00,34.9,18.6,30.09,NW,322,5.0,5.0,51,0.00,,,0.00,Wunderground v.1.15,2013-12-08 20:50:00,
2013-12-08 14:00:00,34.9,18.1,30.10,NNW,333,5.0,5.0,50,0.00,,,0.00,Wunderground v.1.15,2013-12-08 21:00:00,
2013-12-08 14:10:00,34.7,17.9,30.10,NW,310,5.0,9.0,50,0.00,,,0.00,Wunderground v.1.15,2013-12-08 21:10:00,
2013-12-08 14:20:00,34.6,17.4,30.10,NW,324,4.0,9.0,49,0.00,,,0.00,Wunderground v.1.15,2013-12-08 21:20:00,
2013-12-08 14:30:00,34.4,17.7,30.10,North,5,5.0,5.0,50,0.00,,,0.00,Wunderground v.1.15,2013-12-08 21:30:00,
2013-12-08 14:40:00,34.3,17.1,30.10,North,11,4.0,4.0,49,0.00,,,0.00,Wunderground v.1.15,2013-12-08 21:40:00,
2013-12-08 14:50:00,34.3,17.1,30.11,North,355,4.0,4.0,49,0.00,,,0.00,Wunderground v.1.15,2013-12-08 21:50:00,
2013-12-08 15:00:00,34.3,17.1,30.11,North,5,4.0,4.0,49,0.00,,,0.00,Wunderground v.1.15,2013-12-08 22:00:00,
2013-12-08 15:10:00,33.6,16.0,30.11,NNE,17,6.0,9.0,48,0.00,,,0.00,Wunderground v.1.15,2013-12-08 22:10:00,
2013-12-08 15:20:00,32.9,15.3,30.12,North,360,8.0,9.0,48,0.00,,,0.00,Wunderground v.1.15,2013-12-08 22:20:00,
2013-12-08 15:30:00,32.4,15.3,30.12,NNE,16,8.0,8.0,49,0.00,,,0.00,Wunderground v.1.15,2013-12-08 22:30:00,
2013-12-08 15:40:00,32.3,14.8,30.12,North,355,8.0,8.0,48,0.00,,,0.00,Wunderground v.1.15,2013-12-08 22:40:00,
2013-12-08 15:50:00,32.3,15.3,30.12,North,360,5.0,5.0,49,0.00,,,0.00,Wunderground v.1.15,2013-12-08 22:50:00,
2013-12-08 16:00:00,32.2,14.7,30.12,North,360,5.0,5.0,48,0.00,,,0.00,Wunderground v.1.15,2013-12-08 23:00:00,
2013-12-08 16:10:00,31.9,13.9,30.12,North,360,5.0,9.0,47,0.00,,,0.00,Wunderground v.1.15,2013-12-08 23:10:00,
2013-12-08 16:20:00,31.7,13.7,30.12,North,360,4.0,9.0,47,0.00,,,0.00,Wunderground v.1.15,2013-12-08 23:20:00,
2013-12-08 16:30:00,31.7,13.7,30.11,North,360,5.0,5.0,47,0.00,,,0.00,Wunderground v.1.15,2013-12-08 23:30:00,
2013-12-08 16:40:00,31.7,13.7,30.11,North,360,2.0,9.0,47,0.00,,,0.00,Wunderground v.1.15,2013-12-08 23:40:00,
2013-12-08 16:50:00,31.3,12.9,30.11,North,360,3.0,9.0,46,0.00,,,0.00,Wunderground v.1.15,2013-12-08 23:50:00,
2013-12-08 17:00:00,31.0,12.6,30.10,North,11,5.0,10.0,46,0.00,,,0.00,Wunderground v.1.15,2013-12-09 00:00:00,
2013-12-08 17:10:00,30.7,12.3,30.09,NNW,331,4.0,9.0,46,0.00,,,0.00,Wunderground v.1.15,2013-12-09 00:10:00,
2013-12-08 17:20:00,30.4,12.1,30.10,NNW,336,2.0,9.0,46,0.00,,,0.00,Wunderground v.1.15,2013-12-09 00:20:00,
2013-12-08 17:30:00,30.3,12.0,30.11,NNW,330,4.0,9.0,46,0.00,,,0.00,Wunderground v.1.15,2013-12-09 00:30:00,
2013-12-08 17:40:00,30.2,11.9,30.11,NNW,338,4.0,4.0,46,0.00,,,0.00,Wunderground v.1.15,2013-12-09 00:40:00,
2013-12-08 17:50:00,30.3,12.0,30.11,NNW,334,4.0,9.0,46,0.00,,,0.00,Wunderground v.1.15,2013-12-09 00:50:00,
2013-12-08 18:00:00,30.3,11.5,30.11,North,5,5.0,9.0,45,0.00,,,0.00,Wunderground v.1.15,2013-12-09 01:00:00,
2013-12-08 18:10:00,30.3,11.5,30.11,North,5,6.0,6.0,45,0.00,,,0.00,Wunderground v.1.15,2013-12-09 01:10:00,
2013-12-08 18:20:00,30.3,11.0,30.12,NW,314,4.0,9.0,44,0.00,,,0.00,Wunderground v.1.15,2013-12-09 01:20:00,
2013-12-08 18:30:00,30.1,11.3,30.12,NNW,346,4.0,9.0,45,0.00,,,0.00,Wunderground v.1.15,2013-12-09 01:30:00,
2013-12-08 18:40:00,30.1,11.3,30.13,North,355,3.0,3.0,45,0.00,,,0.00,Wunderground v.1.15,2013-12-09 01:40:00,
2013-12-08 18:50:00,30.1,11.3,30.13,NNW,344,2.0,2.0,45,0.00,,,0.00,Wunderground v.1.15,2013-12-09 01:50:00,
2013-12-08 19:00:00,30.0,11.7,30.12,NNW,330,3.0,3.0,46,0.00,,,0.00,Wunderground v.1.15,2013-12-09 02:00:00,
2013-12-08 19:10:00,29.9,11.6,30.12,NNW,336,3.0,9.0,46,0.00,,,0.00,Wunderground v.1.15,2013-12-09 02:10:00,
2013-12-08 19:20:00,29.6,11.8,30.13,NNW,330,2.0,2.0,47,0.00,,,0.00,Wunderground v.1.15,2013-12-09 02:20:00,
2013-12-08 19:30:00,29.4,11.6,30.13,NNW,336,2.0,2.0,47,0.00,,,0.00,Wunderground v.1.15,2013-12-09 02:30:00,
2013-12-08 19:40:00,29.3,12.0,30.13,NNW,338,1.0,9.0,48,0.00,,,0.00,Wunderground v.1.15,2013-12-09 02:40:00,
2013-12-08 19:50:00,29.6,12.3,30.13,NNW,332,2.0,9.0,48,0.00,,,0.00,Wunderground v.1.15,2013-12-09 02:50:00,
2013-12-08 20:00:00,29.6,11.8,30.14,NNW,333,2.0,9.0,47,0.00,,,0.00,Wunderground v.1.15,2013-12-09 03:00:00,
2013-12-08 20:10:00,29.7,11.9,30.14,NNW,338,3.0,3.0,47,0.00,,,0.00,Wunderground v.1.15,2013-12-09 03:10:00,
2013-12-08 20:20:00,29.7,11.9,30.14,NNW,336,2.0,2.0,47,0.00,,,0.00,Wunderground v.1.15,2013-12-09 03:20:00,
2013-12-08 20:30:00,29.8,12.5,30.14,NNW,327,2.0,9.0,48,0.00,,,0.00,Wunderground v.1.15,2013-12-09 03:30:00,
2013-12-08 20:40:00,30.1,13.2,30.14,NW,325,2.0,2.0,49,0.00,,,0.00,Wunderground v.1.15,2013-12-09 03:40:00,
2013-12-08 20:50:00,29.6,13.2,30.14,NW,325,1.0,9.0,50,0.00,,,0.00,Wunderground v.1.15,2013-12-09 03:50:00,
2013-12-08 21:00:00,29.1,13.2,30.14,NW,325,0.0,9.0,51,0.00,,,0.00,Wunderground v.1.15,2013-12-09 04:00:00,
2013-12-08 21:10:00,29.0,14.0,30.15,NW,325,1.0,1.0,53,0.00,,,0.00,Wunderground v.1.15,2013-12-09 04:10:00,
2013-12-08 21:20:00,28.8,13.4,30.15,NW,325,1.0,9.0,52,0.00,,,0.00,Wunderground v.1.15,2013-12-09 04:20:00,
2013-12-08 21:30:00,28.7,13.3,30.15,NW,325,0.0,9.0,52,0.00,,,0.00,Wunderground v.1.15,2013-12-09 04:30:00,
2013-12-08 21:40:00,28.4,13.0,30.15,NW,325,0.0,9.0,52,0.00,,,0.00,Wunderground v.1.15,2013-12-09 04:40:00,
2013-12-08 21:50:00,28.0,13.5,30.16,NW,325,0.0,9.0,54,0.00,,,0.00,Wunderground v.1.15,2013-12-09 04:50:00,
2013-12-08 22:00:00,27.9,13.8,30.16,NW,325,0.0,9.0,55,0.00,,,0.00,Wunderground v.1.15,2013-12-09 05:00:00,
2013-12-08 22:10:00,28.1,14.0,30.15,NW,325,0.0,9.0,55,0.00,,,0.00,Wunderground v.1.15,2013-12-09 05:10:00,
2013-12-08 22:20:00,27.9,14.6,30.16,NW,325,0.0,9.0,57,0.00,,,0.00,Wunderground v.1.15,2013-12-09 05:20:00,
2013-12-08 22:30:00,27.6,14.7,30.16,NW,325,0.0,9.0,58,0.00,,,0.00,Wunderground v.1.15,2013-12-09 05:30:00,
2013-12-08 22:40:00,27.6,15.1,30.16,NW,325,0.0,9.0,59,0.00,,,0.00,Wunderground v.1.15,2013-12-09 05:40:00,
2013-12-08 22:50:00,28.0,15.1,30.16,NW,325,0.0,9.0,58,0.00,,,0.00,Wunderground v.1.15,2013-12-09 05:50:00,
2013-12-08 23:00:00,27.8,14.5,30.16,NW,325,0.0,9.0,57,0.00,,,0.00,Wunderground v.1.15,2013-12-09 06:00:00,
2013-12-08 23:10:00,27.6,13.5,30.16,NW,325,1.0,1.0,55,0.00,,,0.00,Wunderground v.1.15,2013-12-09 06:10:00,
2013-12-08 23:20:00,27.4,13.3,30.16,NW,325,1.0,1.0,55,0.00,,,0.00,Wunderground v.1.15,2013-12-09 06:20:00,
2013-12-08 23:30:00,27.3,14.1,30.17,NW,325,0.0,9.0,57,0.00,,,0.00,Wunderground v.1.15,2013-12-09 06:30:00,
2013-12-08 23:40:00,27.4,14.5,30.17,NW,325,0.0,9.0,58,0.00,,,0.00,Wunderground v.1.15,2013-12-09 06:40:00,
2013-12-08 23:50:00,27.7,14.4,30.17,NW,325,0.0,9.0,57,0.00,,,0.00,Wunderground v.1.15,2013-12-09 06:50:00,